createdAt,value
2022-11-16T00:02:19.682Z,25.42
2022-11-16T00:04:46.104Z,24.25
2022-11-16T00:07:12.524Z,28.08
2022-11-16T00:09:39.134Z,19.80
2022-11-16T00:12:07.449Z,25.60
2022-11-16T00:14:35.616Z,25.05
2022-11-16T00:17:02.900Z,26.13
2022-11-16T00:19:29.707Z,25.10
2022-11-16T00:21:56.452Z,22.02
2022-11-16T00:24:23.897Z,24.45
2022-11-16T00:26:53.388Z,24.73
2022-11-16T00:29:22.613Z,22.08
2022-11-16T00:31:49.846Z,28.30
2022-11-16T00:34:16.886Z,27.25
2022-11-16T00:36:43.660Z,27.10
2022-11-16T00:39:14.631Z,27.73
2022-11-16T00:41:42.466Z,24.95
2022-11-16T00:44:09.931Z,25.73
2022-11-16T00:46:36.278Z,26.08
2022-11-16T00:49:03.247Z,26.15
2022-11-16T00:51:29.611Z,28.20
2022-11-16T00:53:56.054Z,24.70
2022-11-16T00:56:22.798Z,27.50
2022-11-16T00:58:49.420Z,29.75
2022-11-16T01:01:16.022Z,24.23
2022-11-16T01:03:42.460Z,28.50
2022-11-16T01:06:11.024Z,28.60
2022-11-16T01:08:39.134Z,27.35
2022-11-16T01:11:07.017Z,26.65
2022-11-16T01:13:33.564Z,24.15
2022-11-16T01:15:59.918Z,26.15
2022-11-16T01:18:26.339Z,29.65
2022-11-16T01:20:52.793Z,24.10
2022-11-16T01:23:19.277Z,24.13
2022-11-16T01:25:45.704Z,24.13
2022-11-16T01:28:12.099Z,26.42
2022-11-16T01:30:38.523Z,28.60
2022-11-16T01:33:04.920Z,28.20
2022-11-16T01:35:31.398Z,26.45
2022-11-16T01:37:57.838Z,28.70
2022-11-16T01:40:27.530Z,25.58
2022-11-16T01:42:53.891Z,26.98
2022-11-16T01:45:40.414Z,27.27
2022-11-16T01:48:07.680Z,31.60
2022-11-16T01:50:34.777Z,32.65
2022-11-16T01:53:04.212Z,28.33
2022-11-16T01:55:33.219Z,28.95
2022-11-16T01:58:00.874Z,28.15
2022-11-16T02:00:27.356Z,27.27
2022-11-16T02:02:53.912Z,27.83
2022-11-16T02:05:28.871Z,31.65
2022-11-16T02:08:20.960Z,30.80
2022-11-16T02:10:59.200Z,29.40
2022-11-16T02:13:42.306Z,28.13
2022-11-16T02:16:40.186Z,27.38
2022-11-16T02:19:43.762Z,27.88
2022-11-16T02:22:41.133Z,28.95
2022-11-16T02:25:30.508Z,26.48
2022-11-16T02:28:24.849Z,27.55
2022-11-16T02:30:54.102Z,24.05
2022-11-16T02:33:26.523Z,26.23
2022-11-16T02:35:56.960Z,26.92
2022-11-16T02:38:29.982Z,24.45
2022-11-16T02:41:03.006Z,26.70
2022-11-16T02:43:38.200Z,24.05
2022-11-16T02:46:10.786Z,25.73
2022-11-16T02:48:43.780Z,23.35
2022-11-16T02:51:11.453Z,28.70
2022-11-16T02:53:43.048Z,27.42
2022-11-16T02:56:13.346Z,26.05
2022-11-16T02:58:39.902Z,24.15
2022-11-16T03:01:12.979Z,23.95
2022-11-16T03:04:02.607Z,25.15
2022-11-16T03:06:33.022Z,25.20
2022-11-16T03:09:09.187Z,22.08
2022-11-16T03:11:41.935Z,23.08
2022-11-16T03:14:14.479Z,21.83
2022-11-16T03:16:47.441Z,21.48
2022-11-16T03:19:18.344Z,20.65
2022-11-16T03:21:51.994Z,24.38
2022-11-16T03:24:19.348Z,23.52
2022-11-16T03:27:18.532Z,24.08
2022-11-16T03:29:59.857Z,23.77
2022-11-16T03:32:57.180Z,22.83
2022-11-16T03:35:38.710Z,26.05
2022-11-16T03:38:08.156Z,24.90
2022-11-16T03:40:37.154Z,22.60
2022-11-16T03:43:06.610Z,24.92
2022-11-16T03:45:33.320Z,27.92
2022-11-16T03:48:00.352Z,26.35
2022-11-16T03:50:26.954Z,23.35
2022-11-16T03:52:53.367Z,26.45
2022-11-16T03:55:19.768Z,24.02
2022-11-16T03:57:46.152Z,20.60
2022-11-16T04:00:12.947Z,23.52
2022-11-16T04:02:39.367Z,23.13
2022-11-16T04:05:05.927Z,23.52
2022-11-16T04:07:32.410Z,24.25
2022-11-16T04:09:58.929Z,25.70
2022-11-16T04:12:25.359Z,24.52
2022-11-16T04:14:51.929Z,25.70
2022-11-16T04:17:19.364Z,25.42
2022-11-16T04:19:45.807Z,28.25
2022-11-16T04:22:25.858Z,31.52
2022-11-16T04:24:56.860Z,28.83
2022-11-16T04:27:29.721Z,27.55
2022-11-16T04:29:58.594Z,28.20
2022-11-16T04:32:25.331Z,27.23
2022-11-16T04:34:51.883Z,27.30
2022-11-16T04:37:19.179Z,28.83
2022-11-16T04:39:45.600Z,29.25
2022-11-16T04:42:16.991Z,31.38
2022-11-16T04:44:43.423Z,27.30
2022-11-16T04:47:09.832Z,33.33
2022-11-16T04:49:36.331Z,36.05
2022-11-16T04:52:02.957Z,35.67
2022-11-16T04:54:29.375Z,33.85
2022-11-16T04:56:55.892Z,27.65
2022-11-16T04:59:22.340Z,20.67
2022-11-16T05:01:48.832Z,26.15
2022-11-16T05:04:15.333Z,22.33
2022-11-16T05:06:41.771Z,22.50
2022-11-16T05:09:08.213Z,24.35
2022-11-16T05:11:34.669Z,24.58
2022-11-16T05:14:01.120Z,22.88
2022-11-16T05:16:27.594Z,27.30
2022-11-16T05:18:54.182Z,21.65
2022-11-16T05:21:20.655Z,22.85
2022-11-16T05:23:48.312Z,21.80
2022-11-16T05:26:14.843Z,15.65
2022-11-16T05:28:41.275Z,15.73
2022-11-16T05:31:08.863Z,17.83
2022-11-16T05:33:35.329Z,15.20
2022-11-16T05:36:01.794Z,13.88
2022-11-16T05:38:28.250Z,14.60
2022-11-16T05:40:54.648Z,12.73
2022-11-16T05:43:21.115Z,14.40
2022-11-16T05:45:47.510Z,14.07
2022-11-16T05:48:13.979Z,16.48
2022-11-16T05:50:42.925Z,19.90
2022-11-16T05:53:09.576Z,21.17
2022-11-16T05:55:36.127Z,21.13
2022-11-16T05:58:02.566Z,20.08
2022-11-16T06:00:28.998Z,17.05
2022-11-16T06:02:55.625Z,17.38
2022-11-16T06:05:22.151Z,19.33
2022-11-16T06:07:48.500Z,20.48
2022-11-16T06:10:15.011Z,15.77
2022-11-16T06:12:41.452Z,18.00
2022-11-16T06:15:08.061Z,16.10
2022-11-16T06:17:34.390Z,15.63
2022-11-16T06:20:00.756Z,16.60
2022-11-16T06:22:27.133Z,16.63
2022-11-16T06:24:53.518Z,18.08
2022-11-16T06:27:20.063Z,14.85
2022-11-16T06:29:46.439Z,14.90
2022-11-16T06:32:12.878Z,13.95
2022-11-16T06:34:39.256Z,13.38
2022-11-16T06:37:05.813Z,16.10
2022-11-16T06:39:32.176Z,12.25
2022-11-16T06:41:58.590Z,13.00
2022-11-16T06:44:25.043Z,18.58
2022-11-16T06:46:51.512Z,13.80
2022-11-16T06:49:17.927Z,17.15
2022-11-16T06:51:44.353Z,12.73
2022-11-16T06:54:10.694Z,14.73
2022-11-16T06:56:37.106Z,13.07
2022-11-16T06:59:03.665Z,12.20
2022-11-16T07:01:30.102Z,11.50
2022-11-16T07:03:57.159Z,11.25
2022-11-16T07:06:24.956Z,13.95
2022-11-16T07:08:51.445Z,13.20
2022-11-16T07:11:17.869Z,10.93
2022-11-16T07:13:44.294Z,13.98
2022-11-16T07:16:12.059Z,15.18
2022-11-16T07:18:40.281Z,12.77
2022-11-16T07:21:08.911Z,14.30
2022-11-16T07:23:36.060Z,12.73
2022-11-16T07:26:04.410Z,11.80
2022-11-16T07:28:31.778Z,13.80
2022-11-16T07:31:02.817Z,15.23
2022-11-16T07:33:29.590Z,15.98
2022-11-16T07:36:01.262Z,12.98
2022-11-16T07:38:27.896Z,11.60
2022-11-16T07:40:54.351Z,15.18
2022-11-16T07:43:20.723Z,17.38
2022-11-16T07:45:47.180Z,16.20
2022-11-16T07:48:13.528Z,18.13
2022-11-16T07:50:39.944Z,15.70
2022-11-16T07:53:06.390Z,18.38
2022-11-16T07:55:32.823Z,20.20
2022-11-16T07:57:59.244Z,18.55
2022-11-16T08:00:25.822Z,18.30
2022-11-16T08:02:52.211Z,18.25
2022-11-16T08:05:18.583Z,20.55
2022-11-16T08:07:45.031Z,21.30
2022-11-16T08:10:11.571Z,20.65
2022-11-16T08:12:38.030Z,21.13
2022-11-16T08:15:04.617Z,19.30
2022-11-16T08:17:31.044Z,20.10
2022-11-16T08:19:57.473Z,19.85
2022-11-16T08:22:23.868Z,19.38
2022-11-16T08:24:50.338Z,17.75
2022-11-16T08:27:16.830Z,17.95
2022-11-16T08:29:43.222Z,19.77
2022-11-16T08:32:09.645Z,16.45
2022-11-16T08:34:36.040Z,16.55
2022-11-16T08:37:02.440Z,14.57
2022-11-16T08:39:28.800Z,14.05
2022-11-16T08:41:55.183Z,15.07
2022-11-16T08:44:21.642Z,12.52
2022-11-16T08:46:48.070Z,14.20
2022-11-16T08:49:14.584Z,14.52
2022-11-16T08:51:41.086Z,11.73
2022-11-16T08:54:07.462Z,12.43
2022-11-16T08:56:34.291Z,11.55
2022-11-16T08:59:00.734Z,9.80
2022-11-16T09:01:29.419Z,14.55
2022-11-16T09:03:56.372Z,12.77
2022-11-16T09:06:24.946Z,9.90
2022-11-16T09:08:51.963Z,11.30
2022-11-16T09:11:21.862Z,11.40
2022-11-16T09:13:49.612Z,12.07
2022-11-16T09:16:17.044Z,8.63
2022-11-16T09:18:44.499Z,8.73
2022-11-16T09:21:10.929Z,10.13
2022-11-16T09:23:37.310Z,11.73
2022-11-16T09:26:05.409Z,9.88
2022-11-16T09:28:32.014Z,9.93
2022-11-16T09:31:01.604Z,18.90
2022-11-16T09:33:30.003Z,9.40
2022-11-16T09:36:00.557Z,9.18
2022-11-16T09:38:40.174Z,10.15
2022-11-16T09:41:13.277Z,12.57
2022-11-16T09:43:50.049Z,10.85
2022-11-16T09:46:34.459Z,11.88
2022-11-16T09:49:04.955Z,12.98
2022-11-16T09:51:38.735Z,14.35
2022-11-16T09:54:08.518Z,10.00
2022-11-16T09:56:40.276Z,12.10
2022-11-16T09:59:18.413Z,10.68
2022-11-16T10:01:52.502Z,11.30
2022-11-16T10:04:40.381Z,10.70
2022-11-16T10:07:20.021Z,9.85
2022-11-16T10:09:47.359Z,11.43
2022-11-16T10:12:28.320Z,11.32
2022-11-16T10:15:06.839Z,8.75
2022-11-16T10:17:51.459Z,9.38
2022-11-16T10:20:29.212Z,12.05
2022-11-16T10:23:13.459Z,10.18
2022-11-16T10:25:44.671Z,14.27
2022-11-16T10:28:36.685Z,8.43
2022-11-16T10:31:13.808Z,9.82
2022-11-16T10:33:43.312Z,8.50
2022-11-16T10:36:14.726Z,10.18
2022-11-16T10:38:42.944Z,7.57
2022-11-16T10:41:27.875Z,9.20
2022-11-16T10:43:57.733Z,11.35
2022-11-16T10:46:36.321Z,11.05
2022-11-16T10:49:26.812Z,11.55
2022-11-16T10:51:53.175Z,7.75
2022-11-16T10:54:19.510Z,7.72
2022-11-16T10:56:49.334Z,9.93
2022-11-16T10:59:19.004Z,7.80
2022-11-16T11:01:48.351Z,7.80
2022-11-16T11:04:17.335Z,10.65
2022-11-16T11:06:45.064Z,11.98
2022-11-16T11:09:32.987Z,7.72
2022-11-16T11:12:21.947Z,9.32
2022-11-16T11:14:58.746Z,10.75
2022-11-16T11:17:25.265Z,7.07
2022-11-16T11:20:00.142Z,8.00
2022-11-16T11:22:27.247Z,8.80
2022-11-16T11:24:54.071Z,10.80
2022-11-16T11:27:31.364Z,9.10
2022-11-16T11:29:58.591Z,9.68
2022-11-16T11:32:32.777Z,9.45
2022-11-16T11:34:59.432Z,9.63
2022-11-16T11:37:33.922Z,10.65
2022-11-16T11:40:17.690Z,9.52
2022-11-16T11:42:58.861Z,9.55
2022-11-16T11:45:29.227Z,8.88
2022-11-16T11:48:31.344Z,11.43
2022-11-16T11:53:27.279Z,7.30
2022-11-16T11:55:58.695Z,10.80
2022-11-16T11:58:29.812Z,7.85
2022-11-16T12:01:24.891Z,11.32
2022-11-16T12:04:21.031Z,10.95
2022-11-16T12:06:59.004Z,8.50
2022-11-16T12:09:33.622Z,8.25
2022-11-16T12:12:19.188Z,9.70
2022-11-16T12:15:06.727Z,9.00
2022-11-16T12:17:51.413Z,11.85
2022-11-16T12:20:34.069Z,9.57
2022-11-16T12:23:15.851Z,8.10
2022-11-16T12:26:07.504Z,11.18
2022-11-16T12:29:23.793Z,7.72
2022-11-16T12:32:07.723Z,8.93
2022-11-16T12:35:04.110Z,10.75
2022-11-16T12:37:44.723Z,11.63
2022-11-16T12:40:56.423Z,8.35
2022-11-16T12:43:35.294Z,8.18
2022-11-16T12:46:33.482Z,5.93
2022-11-16T12:49:05.762Z,6.05
2022-11-16T12:51:34.873Z,5.93
2022-11-16T12:54:25.553Z,6.35
2022-11-16T12:57:04.234Z,8.27
2022-11-16T12:59:57.378Z,8.05
2022-11-16T13:03:01.365Z,7.47
2022-11-16T13:06:03.621Z,7.78
2022-11-16T13:09:01.204Z,6.22
2022-11-16T13:11:32.394Z,6.43
2022-11-16T13:14:04.040Z,6.70
2022-11-16T13:16:30.579Z,10.70
2022-11-16T13:18:59.160Z,9.32
2022-11-16T13:21:38.968Z,8.55
2022-11-16T13:24:27.134Z,6.20
2022-11-16T13:27:05.307Z,6.88
2022-11-16T13:32:13.690Z,6.25
2022-11-16T13:34:41.185Z,8.40
2022-11-16T13:37:39.013Z,8.25
2022-11-16T13:40:05.299Z,5.30
2022-11-16T13:42:38.848Z,10.60
2022-11-16T13:45:32.057Z,10.38
2022-11-16T13:47:59.917Z,6.57
2022-11-16T13:50:37.436Z,6.55
2022-11-16T13:55:58.842Z,5.70
2022-11-16T13:58:26.985Z,8.05
2022-11-16T14:01:06.403Z,7.70
2022-11-16T14:03:41.333Z,6.10
2022-11-16T14:06:13.780Z,5.72
2022-11-16T14:08:40.039Z,9.50
2022-11-16T14:11:39.501Z,8.60
2022-11-16T14:14:12.258Z,10.82
2022-11-16T14:16:44.584Z,7.03
2022-11-16T14:19:45.205Z,5.00
2022-11-16T14:22:56.056Z,5.10
2022-11-16T14:25:44.371Z,5.10
2022-11-16T14:28:23.561Z,5.18
2022-11-16T14:31:00.925Z,5.65
2022-11-16T14:33:36.110Z,6.90
2022-11-16T14:36:06.028Z,7.78
2022-11-16T14:38:36.492Z,5.18
2022-11-16T14:41:06.212Z,6.53
2022-11-16T14:43:41.440Z,11.50
2022-11-16T14:46:17.102Z,6.25
2022-11-16T14:48:45.772Z,5.70
2022-11-16T14:51:21.603Z,14.93
2022-11-16T14:53:54.953Z,5.75
2022-11-16T14:56:21.784Z,5.88
2022-11-16T14:58:56.760Z,8.70
2022-11-16T15:01:27.634Z,7.10
2022-11-16T15:04:21.177Z,7.25
2022-11-16T15:06:58.534Z,6.78
2022-11-16T15:09:29.663Z,9.60
2022-11-16T15:11:57.530Z,7.75
2022-11-16T15:14:31.485Z,8.50
2022-11-16T15:17:02.250Z,7.35
2022-11-16T15:19:30.185Z,8.38
2022-11-16T15:22:01.116Z,9.02
2022-11-16T15:24:34.862Z,5.85
2022-11-16T15:27:07.212Z,6.05
2022-11-16T15:29:36.564Z,7.18
2022-11-16T15:32:03.597Z,6.40
2022-11-16T15:34:31.095Z,7.35
2022-11-16T15:36:57.538Z,13.48
2022-11-16T15:39:30.248Z,8.02
2022-11-16T15:42:03.234Z,8.93
2022-11-16T15:44:30.650Z,8.30
2022-11-16T15:46:57.258Z,6.28
2022-11-16T15:49:33.342Z,8.75
2022-11-16T15:52:00.375Z,6.05
2022-11-16T15:54:31.357Z,6.13
2022-11-16T15:57:09.717Z,9.23
2022-11-16T15:59:37.099Z,7.38
2022-11-16T16:02:04.135Z,8.82
2022-11-16T16:04:31.012Z,9.23
2022-11-16T16:06:59.491Z,6.15
2022-11-16T16:09:36.305Z,11.10
2022-11-16T16:12:23.642Z,5.35
2022-11-16T16:14:52.313Z,7.50
2022-11-16T16:17:27.305Z,3.65
2022-11-16T16:20:05.778Z,5.32
2022-11-16T16:22:35.350Z,7.90
2022-11-16T16:25:02.163Z,7.28
2022-11-16T16:27:30.915Z,6.90
2022-11-16T16:30:03.442Z,7.43
2022-11-16T16:32:32.581Z,10.02
2022-11-16T16:35:01.010Z,8.15
2022-11-16T16:37:29.444Z,8.75
2022-11-16T16:39:56.344Z,7.68
2022-11-16T16:42:22.764Z,5.57
2022-11-16T16:44:49.212Z,5.90
2022-11-16T16:47:17.119Z,7.85
2022-11-16T16:49:43.648Z,7.18
2022-11-16T16:52:12.257Z,7.60
2022-11-16T16:54:38.587Z,9.35
2022-11-16T16:57:04.957Z,4.82
2022-11-16T16:59:31.370Z,9.15
2022-11-16T17:01:58.527Z,10.93
2022-11-16T17:04:25.298Z,9.95
2022-11-16T17:06:52.818Z,7.82
2022-11-16T17:09:19.271Z,4.78
2022-11-16T17:11:46.971Z,8.82
2022-11-16T17:14:13.410Z,9.38
2022-11-16T17:16:40.085Z,6.93
2022-11-16T17:19:06.441Z,6.90
2022-11-16T17:21:32.771Z,8.85
2022-11-16T17:23:59.134Z,5.63
2022-11-16T17:26:25.461Z,9.43
2022-11-16T17:28:57.641Z,6.75
2022-11-16T17:33:51.216Z,8.32
2022-11-16T17:36:18.014Z,9.68
2022-11-16T17:38:44.646Z,5.78
2022-11-16T17:41:16.953Z,8.80
2022-11-16T17:43:44.692Z,8.38
2022-11-16T17:46:13.775Z,9.05
2022-11-16T17:48:41.573Z,11.35
2022-11-16T17:51:08.969Z,6.78
2022-11-16T17:53:36.357Z,8.82
2022-11-16T17:56:03.956Z,7.28
2022-11-16T17:58:30.961Z,10.50
2022-11-16T18:00:58.003Z,7.88
2022-11-16T18:03:25.000Z,7.28
2022-11-16T18:05:51.852Z,10.77
2022-11-16T18:08:18.212Z,9.18
2022-11-16T18:10:44.569Z,8.52
2022-11-16T18:13:10.938Z,12.88
2022-11-16T18:15:42.102Z,10.68
2022-11-16T18:18:08.954Z,6.72
2022-11-16T18:20:37.009Z,9.13
2022-11-16T18:23:04.608Z,7.93
2022-11-16T18:25:34.167Z,8.35
2022-11-16T18:28:00.583Z,10.40
2022-11-16T18:30:26.921Z,6.97
2022-11-16T18:32:53.320Z,9.45
2022-11-16T18:35:19.669Z,7.85
2022-11-16T18:37:47.162Z,12.00
2022-11-16T18:40:13.800Z,9.98
2022-11-16T18:42:40.230Z,11.25
2022-11-16T18:45:07.352Z,11.90
2022-11-16T18:47:34.348Z,8.32
2022-11-16T18:50:00.683Z,9.85
2022-11-16T18:52:27.101Z,8.98
2022-11-16T18:54:53.404Z,9.77
2022-11-16T18:57:19.740Z,9.98
2022-11-16T18:59:46.039Z,9.57
2022-11-16T19:02:12.478Z,9.35
2022-11-16T19:04:38.928Z,8.98
2022-11-16T19:07:05.360Z,9.35
2022-11-16T19:09:31.707Z,11.60
2022-11-16T19:11:58.235Z,13.43
2022-11-16T19:14:24.663Z,9.63
2022-11-16T19:16:56.694Z,8.73
2022-11-16T19:19:23.599Z,12.57
2022-11-16T19:21:49.918Z,9.27
2022-11-16T19:24:16.278Z,11.60
2022-11-16T19:26:42.610Z,15.45
2022-11-16T19:29:08.980Z,11.75
2022-11-16T19:31:35.319Z,9.05
2022-11-16T19:34:04.764Z,10.68
2022-11-16T19:36:32.643Z,9.07
2022-11-16T19:38:59.325Z,10.65
2022-11-16T19:41:26.488Z,9.93
2022-11-16T19:43:54.570Z,9.02
2022-11-16T19:46:20.882Z,9.63
2022-11-16T19:48:47.430Z,7.78
2022-11-16T19:51:16.782Z,8.38
2022-11-16T19:53:43.189Z,7.15
2022-11-16T19:56:14.768Z,7.32
2022-11-16T19:58:41.778Z,8.65
2022-11-16T20:01:11.937Z,6.32
2022-11-16T20:03:38.933Z,7.28
2022-11-16T20:06:11.415Z,10.13
2022-11-16T20:08:39.386Z,7.55
2022-11-16T20:11:23.165Z,7.03
2022-11-16T20:13:51.554Z,9.27
2022-11-16T20:16:19.219Z,7.80
2022-11-16T20:18:46.480Z,6.18
2022-11-16T20:21:35.759Z,8.48
2022-11-16T20:24:06.721Z,7.78
2022-11-16T20:26:35.201Z,7.80
2022-11-16T20:29:01.532Z,7.13
2022-11-16T20:31:32.632Z,7.00
2022-11-16T20:34:04.623Z,9.32
2022-11-16T20:36:32.814Z,9.35
2022-11-16T20:39:00.220Z,5.78
2022-11-16T20:41:31.041Z,6.65
2022-11-16T20:44:00.578Z,8.43
2022-11-16T20:46:29.365Z,7.70
2022-11-16T20:48:56.595Z,5.65
2022-11-16T20:51:23.259Z,6.60
2022-11-16T20:53:50.209Z,8.57
2022-11-16T20:56:18.110Z,6.75
2022-11-16T20:58:44.927Z,4.63
2022-11-16T21:01:14.651Z,9.50
2022-11-16T21:03:41.427Z,6.45
2022-11-16T21:06:08.104Z,7.72
2022-11-16T21:08:35.467Z,5.80
2022-11-16T21:11:02.327Z,8.35
2022-11-16T21:13:28.684Z,8.38
2022-11-16T21:15:56.713Z,6.95
2022-11-16T21:18:29.328Z,6.95
2022-11-16T21:21:00.449Z,4.85
2022-11-16T21:23:28.761Z,9.05
2022-11-16T21:25:55.132Z,4.63
2022-11-16T21:28:25.507Z,6.80
2022-11-16T21:30:56.673Z,6.75
2022-11-16T21:33:23.306Z,5.82
2022-11-16T21:35:49.816Z,5.53
2022-11-16T21:38:16.192Z,8.52
2022-11-16T21:40:43.837Z,3.65
2022-11-16T21:43:10.167Z,6.10
2022-11-16T21:45:36.510Z,6.35
2022-11-16T21:48:02.994Z,6.32
2022-11-16T21:50:31.925Z,6.45
2022-11-16T21:52:59.630Z,6.03
2022-11-16T21:55:26.564Z,6.22
2022-11-16T21:57:52.941Z,6.72
2022-11-16T22:00:19.698Z,4.03
2022-11-16T22:02:46.033Z,5.10
2022-11-16T22:05:12.433Z,6.50
2022-11-16T22:07:40.849Z,8.77
2022-11-16T22:10:11.868Z,5.85
2022-11-16T22:12:38.875Z,8.38
2022-11-16T22:15:06.934Z,7.07
2022-11-16T22:17:33.300Z,6.13
2022-11-16T22:19:59.647Z,7.53
2022-11-16T22:22:26.042Z,6.00
2022-11-16T22:24:52.409Z,6.07
2022-11-16T22:27:19.113Z,7.38
2022-11-16T22:29:45.419Z,4.90
2022-11-16T22:32:11.720Z,5.03
2022-11-16T22:34:38.066Z,8.13
2022-11-16T22:37:04.409Z,6.07
2022-11-16T22:39:30.796Z,8.00
2022-11-16T22:41:57.136Z,7.88
2022-11-16T22:44:23.459Z,9.32
2022-11-16T22:46:49.777Z,6.57
2022-11-16T22:49:16.120Z,5.72
2022-11-16T22:51:42.457Z,7.18
2022-11-16T22:54:10.355Z,6.32
2022-11-16T22:56:37.313Z,7.53
2022-11-16T22:59:03.983Z,6.88
2022-11-16T23:01:30.344Z,9.57
2022-11-16T23:03:56.804Z,6.88
2022-11-16T23:06:23.354Z,7.95
2022-11-16T23:08:50.418Z,8.30
2022-11-16T23:11:21.815Z,8.48
2022-11-16T23:13:48.988Z,6.35
2022-11-16T23:16:15.289Z,5.75
2022-11-16T23:18:41.622Z,8.70
2022-11-16T23:21:08.764Z,9.20
2022-11-16T23:23:35.394Z,10.18
2022-11-16T23:26:05.085Z,7.93
2022-11-16T23:28:31.394Z,6.72
2022-11-16T23:30:57.787Z,5.40
2022-11-16T23:33:24.139Z,8.85
2022-11-16T23:35:50.454Z,11.38
2022-11-16T23:38:16.742Z,6.50
2022-11-16T23:40:43.098Z,7.15
2022-11-16T23:43:10.548Z,7.88
2022-11-16T23:45:37.818Z,9.93
2022-11-16T23:48:04.870Z,9.13
2022-11-16T23:50:31.380Z,9.15
2022-11-16T23:52:57.773Z,6.93
2022-11-16T23:55:24.132Z,5.78
2022-11-16T23:57:50.912Z,7.93
